Laramie, WY

2:02 AM MDT on May 26, 2015 (GMT -0600)
Laramie Regional | | Change Station
CLOSE
Current Station
Airport
Location: Laramie,
Elevation: 7270 ft
Nearby Weather Stations

Elev 7270 ft 41.32 °N, 105.67 °W | Updated 9 minutes ago

Clear
Clear
36 °F
Feels Like 31 °F
N
6
Wind Variable Wind from SSE

Today
High -- | Low -- °F
--% Chance of Precip.
Yesterday
High -- | Low -- °F
Precip. -- in
5:34 AM 8:24 PM
First Quarter, 56% visible
Pressure 29.93 in
Visibility 10.0 miles
Clouds Clear
Windchill 31 °F
Dew Point 35 °F
Humidity 97%
Rainfall 0.00 in
Snow Depth Not available.
UV 0 out of 12
Pollen 4.70 out of 12
Air Quality Not available.
Flu Activity Sporadic
METAR KLAR 260753Z AUTO 15005KT 10SM CLR 02/02 A3006 RMK AO2 SLP133 T00220017

More Conditions Fewer Conditions

Pressure 29.93 in
Visibility 10.0 miles
Clouds Clear
Windchill 31 °F
Dew Point 35 °F
Humidity 97%
Rainfall 0.00 in
Snow Depth Not available.
UV 0 out of 12
Pollen 4.70 out of 12
Air Quality Not available.
Flu Activity Sporadic
METAR KLAR 260753Z AUTO 15005KT 10SM CLR 02/02 A3006 RMK AO2 SLP133 T00220017

More Conditions Fewer Conditions

10-Day Weather Forecast

Almanac

Astronomy

May. 26, 2015 Rise Set
Actual Time
Civil Twilight
Nautical Twilight
Astronomical Twilight
Moon
Length of Visible Light
Length of Day
Tomorrow will be .
, % of the Moon is Illuminated

Today's Extremes

State Highs State Lows

Community

WunderPhotos

Upload Photos

1,824,302 photos uploaded!

WunderBlogs® & News

Nearby

Air Quality

  Air Quality AQ Index Pollutant
Not available.

Snow Depth

Station Depth Elevation

Earthquake Activity

City Distance Mag. Time & Date
Minimum magnitude displayed is 2.5.

Coastal Water Temperatures

Place Temperature

Stations

Nearby Weather Stations

Station Location Temp. Windchill Dew Point Humidity Wind Precip. Elev Updated Type